Briefing drone pour Le breuil

Rechercher une autre localisation

Conditions de vol :


Nous sommes le : Vendredi 09 décembre 2022
Il est 13:24 UTC (14:24 LT)

Lever de soleil : 06:49 UTC (07:49 LT)
Coucher de soleil : 16:19 UTC (17:19 LT)

Météo

L'essentiel des conditions de vol

VIGILANCE MÉTÉO FRANCE - Saône-et-Loire (71)
Pas de vigilances particulieres
CARTES DES FRONTS
METAR de LFLH
LFLH 091300Z AUTO 03004KT 360V060 9999 OVC029 03/M01 Q1002

Date d'émission: 09/12/2022
Heure d'émission: 13:00 UTC
Vent: 030° (variable du 360° au 060°) pour 4 KT (7 km/h)
Visibilité horizontale: > 10 km
Plafond :
- Couvert à 2900ft (884m)
Température: 3 °C
Point de rosée: -1 °C
Humidité: 75%
Pression (QNH): 1002 hPa
Prévision 24h pour Chalon-sur-saone (17 km)
Vent : 321° pour 2 KT (7 km/h)
Temperature Maxi: -1 °C
Temperature Min: -1 °C
Humidité : 81%
Condition : Ciel dégagé



Warning: count(): Parameter must be an array or an object that implements Countable in /homepages/6/d509196549/htdocs/droneoxygene/briefing.php on line 743
WEBCAM POUR LE BREUIL

Réglementation

Voler en sécurité

CARTES AERONAUTIQUE 1/500.000
CARTE AZBA (Reseau basse altitude)
CARTES VAC (LFLH)
SUP AIP




Chargement des AIP...
NOTAM (LE BREUIL + Terrain à proximité / FIR )




Chargement des NOTAMS...
CONTACT PREFECTURE 71


Avertissement : Les données mises à disposition sont indicatives. Oxygène Drone ne pourra être tenu responsable de dégâts causés aux biens et aux personnes.